sensor_id;sensor_type;location;lat;lon;timestamp;P1;durP1;ratioP1;P2;durP2;ratioP2
46941;SDS011;32676;52.630;4.896;2022-12-18T00:01:23;84.97;;;31.33;;
46941;SDS011;32676;52.630;4.896;2022-12-18T00:03:53;81.60;;;28.93;;
46941;SDS011;32676;52.630;4.896;2022-12-18T00:06:20;94.22;;;28.98;;
46941;SDS011;32676;52.630;4.896;2022-12-18T00:08:47;85.47;;;30.77;;
46941;SDS011;32676;52.630;4.896;2022-12-18T00:11:15;84.37;;;31.23;;
46941;SDS011;32676;52.630;4.896;2022-12-18T00:13:44;83.70;;;31.70;;
46941;SDS011;32676;52.630;4.896;2022-12-18T00:16:12;88.43;;;34.60;;
46941;SDS011;32676;52.630;4.896;2022-12-18T00:18:40;78.10;;;30.07;;
46941;SDS011;32676;52.630;4.896;2022-12-18T00:21:08;76.90;;;30.07;;
46941;SDS011;32676;52.630;4.896;2022-12-18T00:23:36;78.85;;;30.08;;
46941;SDS011;32676;52.630;4.896;2022-12-18T00:26:04;84.20;;;31.23;;
46941;SDS011;32676;52.630;4.896;2022-12-18T00:28:32;85.72;;;27.50;;
46941;SDS011;32676;52.630;4.896;2022-12-18T00:31:01;78.43;;;31.87;;
46941;SDS011;32676;52.630;4.896;2022-12-18T00:33:28;78.28;;;27.48;;
46941;SDS011;32676;52.630;4.896;2022-12-18T00:35:59;74.73;;;30.47;;
46941;SDS011;32676;52.630;4.896;2022-12-18T00:38:27;78.40;;;30.70;;
46941;SDS011;32676;52.630;4.896;2022-12-18T00:40:54;90.03;;;30.47;;
46941;SDS011;32676;52.630;4.896;2022-12-18T00:43:21;85.33;;;31.10;;
46941;SDS011;32676;52.630;4.896;2022-12-18T00:45:46;91.65;;;31.40;;
46941;SDS011;32676;52.630;4.896;2022-12-18T00:48:14;97.77;;;34.50;;
46941;SDS011;32676;52.630;4.896;2022-12-18T00:50:41;83.37;;;30.03;;
46941;SDS011;32676;52.630;4.896;2022-12-18T00:53:07;76.50;;;27.17;;
46941;SDS011;32676;52.630;4.896;2022-12-18T00:55:33;91.67;;;33.93;;
46941;SDS011;32676;52.630;4.896;2022-12-18T00:58:00;97.90;;;29.43;;
46941;SDS011;32676;52.630;4.896;2022-12-18T01:00:27;83.82;;;31.80;;
46941;SDS011;32676;52.630;4.896;2022-12-18T01:02:53;86.80;;;28.67;;
46941;SDS011;32676;52.630;4.896;2022-12-18T01:05:21;86.60;;;30.57;;
46941;SDS011;32676;52.630;4.896;2022-12-18T01:07:48;88.43;;;34.87;;
46941;SDS011;32676;52.630;4.896;2022-12-18T01:10:14;85.30;;;30.70;;
46941;SDS011;32676;52.630;4.896;2022-12-18T01:12:41;83.13;;;30.23;;
46941;SDS011;32676;52.630;4.896;2022-12-18T01:15:08;91.03;;;30.03;;
46941;SDS011;32676;52.630;4.896;2022-12-18T01:17:35;77.13;;;29.08;;
46941;SDS011;32676;52.630;4.896;2022-12-18T01:20:02;83.57;;;28.03;;
46941;SDS011;32676;52.630;4.896;2022-12-18T01:22:33;84.00;;;29.95;;
46941;SDS011;32676;52.630;4.896;2022-12-18T01:25:00;78.93;;;29.58;;
46941;SDS011;32676;52.630;4.896;2022-12-18T01:27:27;84.13;;;32.67;;
46941;SDS011;32676;52.630;4.896;2022-12-18T01:29:53;89.57;;;28.17;;
46941;SDS011;32676;52.630;4.896;2022-12-18T01:32:20;75.43;;;28.83;;
46941;SDS011;32676;52.630;4.896;2022-12-18T01:34:47;97.63;;;30.10;;
46941;SDS011;32676;52.630;4.896;2022-12-18T01:37:13;93.95;;;34.25;;
46941;SDS011;32676;52.630;4.896;2022-12-18T01:39:41;77.60;;;29.25;;
46941;SDS011;32676;52.630;4.896;2022-12-18T01:42:10;95.83;;;30.70;;
46941;SDS011;32676;52.630;4.896;2022-12-18T01:44:53;78.95;;;28.25;;
46941;SDS011;32676;52.630;4.896;2022-12-18T01:47:25;88.07;;;30.10;;
46941;SDS011;32676;52.630;4.896;2022-12-18T01:49:55;97.30;;;29.40;;
46941;SDS011;32676;52.630;4.896;2022-12-18T01:52:22;82.87;;;32.13;;
46941;SDS011;32676;52.630;4.896;2022-12-18T01:54:53;82.38;;;28.70;;
46941;SDS011;32676;52.630;4.896;2022-12-18T01:57:21;85.90;;;30.30;;
46941;SDS011;32676;52.630;4.896;2022-12-18T01:59:51;85.50;;;30.07;;
46941;SDS011;32676;52.630;4.896;2022-12-18T02:02:19;76.07;;;28.13;;
46941;SDS011;32676;52.630;4.896;2022-12-18T02:04:47;85.25;;;27.70;;
46941;SDS011;32676;52.630;4.896;2022-12-18T02:07:14;94.77;;;30.03;;
46941;SDS011;32676;52.630;4.896;2022-12-18T02:09:48;79.35;;;30.55;;
46941;SDS011;32676;52.630;4.896;2022-12-18T02:12:23;83.17;;;29.17;;
46941;SDS011;32676;52.630;4.896;2022-12-18T02:14:53;76.50;;;26.67;;
46941;SDS011;32676;52.630;4.896;2022-12-18T02:17:26;77.47;;;28.67;;
46941;SDS011;32676;52.630;4.896;2022-12-18T02:20:03;71.03;;;27.10;;
46941;SDS011;32676;52.630;4.896;2022-12-18T02:22:40;85.90;;;29.70;;
46941;SDS011;32676;52.630;4.896;2022-12-18T02:25:21;82.55;;;28.55;;
46941;SDS011;32676;52.630;4.896;2022-12-18T02:28:02;71.65;;;29.92;;
46941;SDS011;32676;52.630;4.896;2022-12-18T02:30:32;76.60;;;26.05;;
46941;SDS011;32676;52.630;4.896;2022-12-18T02:33:01;76.97;;;27.90;;
46941;SDS011;32676;52.630;4.896;2022-12-18T02:35:30;82.40;;;30.53;;
46941;SDS011;32676;52.630;4.896;2022-12-18T02:37:58;74.03;;;29.00;;
46941;SDS011;32676;52.630;4.896;2022-12-18T02:40:26;87.83;;;30.40;;
46941;SDS011;32676;52.630;4.896;2022-12-18T02:42:54;75.73;;;27.30;;
46941;SDS011;32676;52.630;4.896;2022-12-18T02:45:22;78.90;;;29.02;;
46941;SDS011;32676;52.630;4.896;2022-12-18T02:47:49;70.97;;;26.33;;
46941;SDS011;32676;52.630;4.896;2022-12-18T02:50:18;77.25;;;29.25;;
46941;SDS011;32676;52.630;4.896;2022-12-18T02:52:55;76.77;;;29.17;;
46941;SDS011;32676;52.630;4.896;2022-12-18T02:55:29;77.25;;;28.48;;
46941;SDS011;32676;52.630;4.896;2022-12-18T02:58:11;92.38;;;28.20;;
46941;SDS011;32676;52.630;4.896;2022-12-18T03:00:46;77.03;;;26.90;;
46941;SDS011;32676;52.630;4.896;2022-12-18T03:03:18;85.20;;;31.30;;
46941;SDS011;32676;52.630;4.896;2022-12-18T03:05:51;84.40;;;28.83;;
46941;SDS011;32676;52.630;4.896;2022-12-18T03:08:22;80.67;;;29.87;;
46941;SDS011;32676;52.630;4.896;2022-12-18T03:10:52;94.43;;;30.03;;
46941;SDS011;32676;52.630;4.896;2022-12-18T03:13:25;94.00;;;29.63;;
46941;SDS011;32676;52.630;4.896;2022-12-18T03:15:57;81.10;;;28.10;;
46941;SDS011;32676;52.630;4.896;2022-12-18T03:18:26;91.20;;;25.70;;
46941;SDS011;32676;52.630;4.896;2022-12-18T03:20:59;120.57;;;28.73;;
46941;SDS011;32676;52.630;4.896;2022-12-18T03:23:32;98.27;;;26.03;;
46941;SDS011;32676;52.630;4.896;2022-12-18T03:26:03;83.97;;;25.23;;
46941;SDS011;32676;52.630;4.896;2022-12-18T03:28:33;67.93;;;25.33;;
46941;SDS011;32676;52.630;4.896;2022-12-18T03:31:06;126.37;;;29.63;;
46941;SDS011;32676;52.630;4.896;2022-12-18T03:33:37;102.00;;;29.37;;
46941;SDS011;32676;52.630;4.896;2022-12-18T03:36:07;70.43;;;25.07;;
46941;SDS011;32676;52.630;4.896;2022-12-18T03:38:34;59.97;;;25.00;;
46941;SDS011;32676;52.630;4.896;2022-12-18T03:41:03;81.77;;;29.03;;
46941;SDS011;32676;52.630;4.896;2022-12-18T03:43:39;84.05;;;22.58;;
46941;SDS011;32676;52.630;4.896;2022-12-18T03:46:17;76.00;;;23.98;;
46941;SDS011;32676;52.630;4.896;2022-12-18T03:48:52;86.40;;;24.83;;
46941;SDS011;32676;52.630;4.896;2022-12-18T03:51:26;82.80;;;22.50;;
46941;SDS011;32676;52.630;4.896;2022-12-18T03:53:59;84.13;;;24.00;;
46941;SDS011;32676;52.630;4.896;2022-12-18T03:56:29;157.43;;;29.47;;
46941;SDS011;32676;52.630;4.896;2022-12-18T03:58:57;71.53;;;23.92;;
46941;SDS011;32676;52.630;4.896;2022-12-18T04:01:31;88.70;;;24.33;;
46941;SDS011;32676;52.630;4.896;2022-12-18T04:04:00;60.88;;;23.27;;
46941;SDS011;32676;52.630;4.896;2022-12-18T04:06:28;73.70;;;24.20;;
46941;SDS011;32676;52.630;4.896;2022-12-18T04:08:56;69.22;;;25.60;;
46941;SDS011;32676;52.630;4.896;2022-12-18T04:11:23;68.40;;;20.23;;
46941;SDS011;32676;52.630;4.896;2022-12-18T04:13:49;65.88;;;22.23;;
46941;SDS011;32676;52.630;4.896;2022-12-18T04:16:16;93.30;;;24.47;;
46941;SDS011;32676;52.630;4.896;2022-12-18T04:18:44;96.70;;;25.63;;
46941;SDS011;32676;52.630;4.896;2022-12-18T04:21:10;59.83;;;22.93;;
46941;SDS011;32676;52.630;4.896;2022-12-18T04:23:36;62.50;;;23.27;;
46941;SDS011;32676;52.630;4.896;2022-12-18T04:26:03;56.63;;;24.60;;
46941;SDS011;32676;52.630;4.896;2022-12-18T04:28:30;57.97;;;23.00;;
46941;SDS011;32676;52.630;4.896;2022-12-18T04:30:56;54.50;;;22.05;;
46941;SDS011;32676;52.630;4.896;2022-12-18T04:33:22;56.93;;;21.00;;
46941;SDS011;32676;52.630;4.896;2022-12-18T04:35:50;63.92;;;22.05;;
46941;SDS011;32676;52.630;4.896;2022-12-18T04:38:17;70.70;;;22.73;;
46941;SDS011;32676;52.630;4.896;2022-12-18T04:40:43;59.57;;;24.90;;
46941;SDS011;32676;52.630;4.896;2022-12-18T04:43:10;70.00;;;29.97;;
46941;SDS011;32676;52.630;4.896;2022-12-18T04:45:36;81.33;;;22.97;;
46941;SDS011;32676;52.630;4.896;2022-12-18T04:48:03;69.90;;;23.83;;
46941;SDS011;32676;52.630;4.896;2022-12-18T04:50:30;74.90;;;24.97;;
46941;SDS011;32676;52.630;4.896;2022-12-18T04:52:58;66.90;;;25.40;;
46941;SDS011;32676;52.630;4.896;2022-12-18T04:55:24;64.90;;;21.33;;
46941;SDS011;32676;52.630;4.896;2022-12-18T04:57:51;59.10;;;22.63;;
46941;SDS011;32676;52.630;4.896;2022-12-18T05:00:18;76.87;;;23.97;;
46941;SDS011;32676;52.630;4.896;2022-12-18T05:02:45;61.57;;;26.03;;
46941;SDS011;32676;52.630;4.896;2022-12-18T05:05:11;69.03;;;23.67;;
46941;SDS011;32676;52.630;4.896;2022-12-18T05:07:38;51.87;;;21.70;;
46941;SDS011;32676;52.630;4.896;2022-12-18T05:10:06;57.33;;;23.43;;
46941;SDS011;32676;52.630;4.896;2022-12-18T05:12:33;60.33;;;20.88;;
46941;SDS011;32676;52.630;4.896;2022-12-18T05:15:20;78.67;;;24.17;;
46941;SDS011;32676;52.630;4.896;2022-12-18T05:17:46;87.93;;;27.37;;
46941;SDS011;32676;52.630;4.896;2022-12-18T05:20:12;62.50;;;25.03;;
46941;SDS011;32676;52.630;4.896;2022-12-18T05:22:39;73.17;;;21.63;;
46941;SDS011;32676;52.630;4.896;2022-12-18T05:25:09;57.47;;;21.13;;
46941;SDS011;32676;52.630;4.896;2022-12-18T05:27:36;57.70;;;19.80;;
46941;SDS011;32676;52.630;4.896;2022-12-18T05:30:02;69.03;;;22.10;;
46941;SDS011;32676;52.630;4.896;2022-12-18T05:32:29;59.73;;;24.90;;
46941;SDS011;32676;52.630;4.896;2022-12-18T05:34:56;61.15;;;22.75;;
46941;SDS011;32676;52.630;4.896;2022-12-18T05:37:23;133.10;;;29.57;;
46941;SDS011;32676;52.630;4.896;2022-12-18T05:39:49;64.43;;;23.47;;
46941;SDS011;32676;52.630;4.896;2022-12-18T05:42:17;69.33;;;22.20;;
46941;SDS011;32676;52.630;4.896;2022-12-18T05:44:43;61.13;;;23.07;;
46941;SDS011;32676;52.630;4.896;2022-12-18T05:47:10;55.27;;;21.17;;
46941;SDS011;32676;52.630;4.896;2022-12-18T05:49:36;67.73;;;21.87;;
46941;SDS011;32676;52.630;4.896;2022-12-18T05:52:03;67.85;;;21.70;;
46941;SDS011;32676;52.630;4.896;2022-12-18T05:54:30;54.30;;;21.13;;
46941;SDS011;32676;52.630;4.896;2022-12-18T05:56:57;51.30;;;23.70;;
46941;SDS011;32676;52.630;4.896;2022-12-18T05:59:25;55.00;;;23.13;;
46941;SDS011;32676;52.630;4.896;2022-12-18T06:01:51;53.20;;;24.00;;
46941;SDS011;32676;52.630;4.896;2022-12-18T06:04:18;60.53;;;21.87;;
46941;SDS011;32676;52.630;4.896;2022-12-18T06:06:44;70.37;;;27.33;;
46941;SDS011;32676;52.630;4.896;2022-12-18T06:09:11;56.70;;;22.73;;
46941;SDS011;32676;52.630;4.896;2022-12-18T06:11:37;51.33;;;22.20;;
46941;SDS011;32676;52.630;4.896;2022-12-18T06:14:05;56.23;;;23.20;;
46941;SDS011;32676;52.630;4.896;2022-12-18T06:16:33;58.50;;;23.60;;
46941;SDS011;32676;52.630;4.896;2022-12-18T06:19:00;61.87;;;21.20;;
46941;SDS011;32676;52.630;4.896;2022-12-18T06:21:28;57.30;;;22.97;;
46941;SDS011;32676;52.630;4.896;2022-12-18T06:23:55;54.77;;;22.03;;
46941;SDS011;32676;52.630;4.896;2022-12-18T06:26:22;60.97;;;23.23;;
46941;SDS011;32676;52.630;4.896;2022-12-18T06:28:49;64.13;;;27.03;;
46941;SDS011;32676;52.630;4.896;2022-12-18T06:31:15;53.03;;;21.93;;
46941;SDS011;32676;52.630;4.896;2022-12-18T06:33:43;62.60;;;23.37;;
46941;SDS011;32676;52.630;4.896;2022-12-18T06:36:10;58.03;;;21.63;;
46941;SDS011;32676;52.630;4.896;2022-12-18T06:38:39;64.30;;;24.37;;
46941;SDS011;32676;52.630;4.896;2022-12-18T06:41:08;62.53;;;22.33;;
46941;SDS011;32676;52.630;4.896;2022-12-18T06:43:34;52.37;;;21.43;;
46941;SDS011;32676;52.630;4.896;2022-12-18T06:46:01;53.50;;;24.57;;
46941;SDS011;32676;52.630;4.896;2022-12-18T06:48:28;59.63;;;24.10;;
46941;SDS011;32676;52.630;4.896;2022-12-18T06:50:57;50.93;;;19.83;;
46941;SDS011;32676;52.630;4.896;2022-12-18T06:53:24;49.30;;;20.98;;
46941;SDS011;32676;52.630;4.896;2022-12-18T06:55:50;55.90;;;23.77;;
46941;SDS011;32676;52.630;4.896;2022-12-18T06:58:17;55.67;;;22.67;;
46941;SDS011;32676;52.630;4.896;2022-12-18T07:00:43;52.87;;;23.03;;
46941;SDS011;32676;52.630;4.896;2022-12-18T07:03:10;62.83;;;23.03;;
46941;SDS011;32676;52.630;4.896;2022-12-18T07:05:39;49.07;;;22.00;;
46941;SDS011;32676;52.630;4.896;2022-12-18T07:08:07;58.40;;;21.97;;
46941;SDS011;32676;52.630;4.896;2022-12-18T07:10:39;52.30;;;23.20;;
46941;SDS011;32676;52.630;4.896;2022-12-18T07:13:07;48.23;;;18.77;;
46941;SDS011;32676;52.630;4.896;2022-12-18T07:15:33;51.10;;;20.30;;
46941;SDS011;32676;52.630;4.896;2022-12-18T07:18:00;44.97;;;19.67;;
46941;SDS011;32676;52.630;4.896;2022-12-18T07:20:26;43.93;;;16.83;;
46941;SDS011;32676;52.630;4.896;2022-12-18T07:22:53;46.73;;;17.13;;
46941;SDS011;32676;52.630;4.896;2022-12-18T07:25:21;46.70;;;20.93;;
46941;SDS011;32676;52.630;4.896;2022-12-18T07:27:47;34.43;;;14.93;;
46941;SDS011;32676;52.630;4.896;2022-12-18T07:30:13;34.27;;;13.03;;
46941;SDS011;32676;52.630;4.896;2022-12-18T07:32:40;35.83;;;14.37;;
46941;SDS011;32676;52.630;4.896;2022-12-18T07:35:06;36.40;;;16.77;;
46941;SDS011;32676;52.630;4.896;2022-12-18T07:37:33;39.70;;;16.10;;
46941;SDS011;32676;52.630;4.896;2022-12-18T07:39:59;31.87;;;13.60;;
46941;SDS011;32676;52.630;4.896;2022-12-18T07:42:27;34.43;;;12.73;;
46941;SDS011;32676;52.630;4.896;2022-12-18T07:44:56;34.73;;;13.03;;
46941;SDS011;32676;52.630;4.896;2022-12-18T07:47:23;33.70;;;12.87;;
46941;SDS011;32676;52.630;4.896;2022-12-18T07:49:50;34.57;;;12.57;;
46941;SDS011;32676;52.630;4.896;2022-12-18T07:52:16;24.83;;;10.70;;
46941;SDS011;32676;52.630;4.896;2022-12-18T07:54:42;30.87;;;10.90;;
46941;SDS011;32676;52.630;4.896;2022-12-18T07:57:09;29.53;;;12.00;;
46941;SDS011;32676;52.630;4.896;2022-12-18T07:59:37;32.60;;;11.60;;
46941;SDS011;32676;52.630;4.896;2022-12-18T08:02:03;31.57;;;14.50;;
46941;SDS011;32676;52.630;4.896;2022-12-18T08:04:30;32.80;;;13.80;;
46941;SDS011;32676;52.630;4.896;2022-12-18T08:06:56;31.00;;;10.97;;
46941;SDS011;32676;52.630;4.896;2022-12-18T08:09:23;25.80;;;10.77;;
46941;SDS011;32676;52.630;4.896;2022-12-18T08:11:49;27.30;;;12.17;;
46941;SDS011;32676;52.630;4.896;2022-12-18T08:14:16;28.83;;;12.07;;
46941;SDS011;32676;52.630;4.896;2022-12-18T08:16:43;28.80;;;11.03;;
46941;SDS011;32676;52.630;4.896;2022-12-18T08:19:10;28.77;;;13.10;;
46941;SDS011;32676;52.630;4.896;2022-12-18T08:21:36;29.50;;;13.00;;
46941;SDS011;32676;52.630;4.896;2022-12-18T08:24:03;29.47;;;11.97;;
46941;SDS011;32676;52.630;4.896;2022-12-18T08:26:31;24.13;;;11.73;;
46941;SDS011;32676;52.630;4.896;2022-12-18T08:28:58;29.58;;;14.52;;
46941;SDS011;32676;52.630;4.896;2022-12-18T08:31:25;24.87;;;11.70;;
46941;SDS011;32676;52.630;4.896;2022-12-18T08:33:54;34.40;;;12.77;;
46941;SDS011;32676;52.630;4.896;2022-12-18T08:36:21;32.03;;;11.88;;
46941;SDS011;32676;52.630;4.896;2022-12-18T08:38:48;26.40;;;11.07;;
46941;SDS011;32676;52.630;4.896;2022-12-18T08:41:15;24.63;;;10.00;;
46941;SDS011;32676;52.630;4.896;2022-12-18T08:43:43;29.17;;;12.03;;
46941;SDS011;32676;52.630;4.896;2022-12-18T08:46:31;26.15;;;11.00;;
46941;SDS011;32676;52.630;4.896;2022-12-18T08:49:01;29.57;;;12.07;;
46941;SDS011;32676;52.630;4.896;2022-12-18T08:51:28;29.60;;;11.50;;
46941;SDS011;32676;52.630;4.896;2022-12-18T08:53:54;20.63;;;10.80;;
46941;SDS011;32676;52.630;4.896;2022-12-18T08:56:22;23.80;;;10.30;;
46941;SDS011;32676;52.630;4.896;2022-12-18T08:58:50;24.90;;;12.65;;
46941;SDS011;32676;52.630;4.896;2022-12-18T09:01:18;25.48;;;10.23;;
46941;SDS011;32676;52.630;4.896;2022-12-18T09:03:47;24.60;;;10.55;;
46941;SDS011;32676;52.630;4.896;2022-12-18T09:06:16;21.35;;;10.57;;
46941;SDS011;32676;52.630;4.896;2022-12-18T09:08:43;21.10;;;11.05;;
46941;SDS011;32676;52.630;4.896;2022-12-18T09:11:11;22.73;;;9.50;;
46941;SDS011;32676;52.630;4.896;2022-12-18T09:13:40;18.10;;;8.93;;
46941;SDS011;32676;52.630;4.896;2022-12-18T09:16:07;17.42;;;8.48;;
46941;SDS011;32676;52.630;4.896;2022-12-18T09:18:34;23.23;;;10.97;;
46941;SDS011;32676;52.630;4.896;2022-12-18T09:21:06;19.75;;;8.88;;
46941;SDS011;32676;52.630;4.896;2022-12-18T09:23:35;19.90;;;9.50;;
46941;SDS011;32676;52.630;4.896;2022-12-18T09:26:01;17.00;;;9.50;;
46941;SDS011;32676;52.630;4.896;2022-12-18T09:28:28;24.73;;;9.38;;
46941;SDS011;32676;52.630;4.896;2022-12-18T09:30:54;19.80;;;9.33;;
46941;SDS011;32676;52.630;4.896;2022-12-18T09:33:21;19.45;;;8.68;;
46941;SDS011;32676;52.630;4.896;2022-12-18T09:35:47;15.93;;;9.53;;
46941;SDS011;32676;52.630;4.896;2022-12-18T09:38:15;20.85;;;8.93;;
46941;SDS011;32676;52.630;4.896;2022-12-18T09:40:44;19.27;;;9.40;;
46941;SDS011;32676;52.630;4.896;2022-12-18T09:43:15;19.47;;;10.13;;
46941;SDS011;32676;52.630;4.896;2022-12-18T09:45:45;21.13;;;10.13;;
46941;SDS011;32676;52.630;4.896;2022-12-18T09:48:15;29.00;;;10.80;;
46941;SDS011;32676;52.630;4.896;2022-12-18T09:50:45;20.33;;;9.88;;
46941;SDS011;32676;52.630;4.896;2022-12-18T09:53:14;17.35;;;9.15;;
46941;SDS011;32676;52.630;4.896;2022-12-18T09:55:47;24.37;;;10.20;;
46941;SDS011;32676;52.630;4.896;2022-12-18T09:58:17;22.43;;;10.87;;
46941;SDS011;32676;52.630;4.896;2022-12-18T10:00:50;18.70;;;7.85;;
46941;SDS011;32676;52.630;4.896;2022-12-18T10:03:17;17.48;;;7.75;;
46941;SDS011;32676;52.630;4.896;2022-12-18T10:05:46;25.83;;;10.27;;
46941;SDS011;32676;52.630;4.896;2022-12-18T10:08:24;21.48;;;8.60;;
46941;SDS011;32676;52.630;4.896;2022-12-18T10:11:03;20.43;;;9.33;;
46941;SDS011;32676;52.630;4.896;2022-12-18T10:13:46;22.10;;;9.13;;
46941;SDS011;32676;52.630;4.896;2022-12-18T10:16:19;19.38;;;9.63;;
46941;SDS011;32676;52.630;4.896;2022-12-18T10:19:00;17.45;;;9.10;;
46941;SDS011;32676;52.630;4.896;2022-12-18T10:21:37;18.13;;;8.20;;
46941;SDS011;32676;52.630;4.896;2022-12-18T10:24:13;23.00;;;8.57;;
46941;SDS011;32676;52.630;4.896;2022-12-18T10:26:49;15.48;;;7.90;;
46941;SDS011;32676;52.630;4.896;2022-12-18T10:29:18;20.07;;;8.33;;
46941;SDS011;32676;52.630;4.896;2022-12-18T10:31:45;11.95;;;7.32;;
46941;SDS011;32676;52.630;4.896;2022-12-18T10:34:12;17.27;;;7.80;;
46941;SDS011;32676;52.630;4.896;2022-12-18T10:36:39;19.73;;;8.75;;
46941;SDS011;32676;52.630;4.896;2022-12-18T10:39:16;17.50;;;8.65;;
46941;SDS011;32676;52.630;4.896;2022-12-18T10:41:44;23.63;;;9.40;;
46941;SDS011;32676;52.630;4.896;2022-12-18T10:44:16;19.05;;;8.68;;
46941;SDS011;32676;52.630;4.896;2022-12-18T10:46:44;16.77;;;8.13;;
46941;SDS011;32676;52.630;4.896;2022-12-18T10:49:19;17.50;;;8.52;;
46941;SDS011;32676;52.630;4.896;2022-12-18T10:51:48;20.85;;;7.60;;
46941;SDS011;32676;52.630;4.896;2022-12-18T10:54:15;17.42;;;8.43;;
46941;SDS011;32676;52.630;4.896;2022-12-18T10:56:44;28.67;;;9.63;;
46941;SDS011;32676;52.630;4.896;2022-12-18T10:59:11;18.03;;;9.37;;
46941;SDS011;32676;52.630;4.896;2022-12-18T11:01:48;18.55;;;8.15;;
46941;SDS011;32676;52.630;4.896;2022-12-18T11:04:16;20.77;;;8.32;;
46941;SDS011;32676;52.630;4.896;2022-12-18T11:06:55;18.67;;;9.95;;
46941;SDS011;32676;52.630;4.896;2022-12-18T11:09:26;19.92;;;9.77;;
46941;SDS011;32676;52.630;4.896;2022-12-18T11:11:54;18.63;;;8.02;;
46941;SDS011;32676;52.630;4.896;2022-12-18T11:14:27;18.48;;;9.10;;
46941;SDS011;32676;52.630;4.896;2022-12-18T11:16:55;16.52;;;8.63;;
46941;SDS011;32676;52.630;4.896;2022-12-18T11:19:30;18.73;;;9.60;;
46941;SDS011;32676;52.630;4.896;2022-12-18T11:21:59;18.15;;;8.38;;
46941;SDS011;32676;52.630;4.896;2022-12-18T11:24:29;17.38;;;8.63;;
46941;SDS011;32676;52.630;4.896;2022-12-18T11:26:57;16.95;;;9.10;;
46941;SDS011;32676;52.630;4.896;2022-12-18T11:29:33;24.00;;;10.10;;
46941;SDS011;32676;52.630;4.896;2022-12-18T11:34:51;17.10;;;8.10;;
46941;SDS011;32676;52.630;4.896;2022-12-18T11:37:24;18.10;;;8.60;;
46941;SDS011;32676;52.630;4.896;2022-12-18T11:39:51;17.98;;;8.15;;
46941;SDS011;32676;52.630;4.896;2022-12-18T11:42:24;16.10;;;8.68;;
46941;SDS011;32676;52.630;4.896;2022-12-18T11:44:59;22.17;;;9.02;;
46941;SDS011;32676;52.630;4.896;2022-12-18T11:47:34;16.67;;;7.53;;
46941;SDS011;32676;52.630;4.896;2022-12-18T11:50:12;16.73;;;8.30;;
46941;SDS011;32676;52.630;4.896;2022-12-18T11:52:42;15.90;;;7.85;;
46941;SDS011;32676;52.630;4.896;2022-12-18T11:55:10;23.00;;;9.25;;
46941;SDS011;32676;52.630;4.896;2022-12-18T11:57:41;21.70;;;9.43;;
46941;SDS011;32676;52.630;4.896;2022-12-18T12:00:18;16.52;;;8.25;;
46941;SDS011;32676;52.630;4.896;2022-12-18T12:02:53;19.80;;;8.48;;
46941;SDS011;32676;52.630;4.896;2022-12-18T12:05:41;17.92;;;10.05;;
46941;SDS011;32676;52.630;4.896;2022-12-18T12:08:21;20.00;;;8.63;;
46941;SDS011;32676;52.630;4.896;2022-12-18T12:10:57;18.33;;;8.80;;
46941;SDS011;32676;52.630;4.896;2022-12-18T12:13:37;15.75;;;7.65;;
46941;SDS011;32676;52.630;4.896;2022-12-18T12:16:15;16.20;;;7.60;;
46941;SDS011;32676;52.630;4.896;2022-12-18T12:18:50;21.03;;;9.23;;
46941;SDS011;32676;52.630;4.896;2022-12-18T12:21:28;15.10;;;6.72;;
46941;SDS011;32676;52.630;4.896;2022-12-18T12:24:07;14.63;;;7.22;;
46941;SDS011;32676;52.630;4.896;2022-12-18T12:26:47;18.17;;;9.00;;
46941;SDS011;32676;52.630;4.896;2022-12-18T12:29:23;16.15;;;7.68;;
46941;SDS011;32676;52.630;4.896;2022-12-18T12:32:07;19.27;;;7.35;;
46941;SDS011;32676;52.630;4.896;2022-12-18T12:34:49;16.25;;;7.35;;
46941;SDS011;32676;52.630;4.896;2022-12-18T12:37:32;19.45;;;9.15;;
46941;SDS011;32676;52.630;4.896;2022-12-18T12:40:10;16.25;;;8.25;;
46941;SDS011;32676;52.630;4.896;2022-12-18T12:42:42;13.27;;;7.22;;
46941;SDS011;32676;52.630;4.896;2022-12-18T12:45:33;19.77;;;9.07;;
46941;SDS011;32676;52.630;4.896;2022-12-18T12:48:05;14.93;;;7.13;;
46941;SDS011;32676;52.630;4.896;2022-12-18T12:50:40;20.02;;;7.78;;
46941;SDS011;32676;52.630;4.896;2022-12-18T12:53:08;23.45;;;7.25;;
46941;SDS011;32676;52.630;4.896;2022-12-18T12:55:49;15.35;;;8.00;;
46941;SDS011;32676;52.630;4.896;2022-12-18T12:58:17;16.02;;;7.93;;
46941;SDS011;32676;52.630;4.896;2022-12-18T13:00:55;18.92;;;8.25;;
46941;SDS011;32676;52.630;4.896;2022-12-18T13:03:35;21.00;;;8.10;;
46941;SDS011;32676;52.630;4.896;2022-12-18T13:06:10;20.38;;;8.15;;
46941;SDS011;32676;52.630;4.896;2022-12-18T13:08:53;16.38;;;7.90;;
46941;SDS011;32676;52.630;4.896;2022-12-18T13:11:29;16.33;;;8.48;;
46941;SDS011;32676;52.630;4.896;2022-12-18T13:14:26;18.27;;;7.82;;
46941;SDS011;32676;52.630;4.896;2022-12-18T13:19:42;13.52;;;6.95;;
46941;SDS011;32676;52.630;4.896;2022-12-18T13:22:19;13.63;;;7.10;;
46941;SDS011;32676;52.630;4.896;2022-12-18T13:24:47;17.60;;;8.63;;
46941;SDS011;32676;52.630;4.896;2022-12-18T13:36:23;20.05;;;8.65;;
46941;SDS011;32676;52.630;4.896;2022-12-18T13:39:09;17.73;;;7.53;;
46941;SDS011;32676;52.630;4.896;2022-12-18T13:45:35;16.33;;;7.93;;
46941;SDS011;32676;52.630;4.896;2022-12-18T13:48:10;19.75;;;8.27;;
46941;SDS011;32676;52.630;4.896;2022-12-18T13:50:42;17.50;;;7.15;;
46941;SDS011;32676;52.630;4.896;2022-12-18T13:53:15;14.55;;;7.15;;
46941;SDS011;32676;52.630;4.896;2022-12-18T13:55:47;17.25;;;8.45;;
46941;SDS011;32676;52.630;4.896;2022-12-18T13:58:15;18.40;;;8.50;;
46941;SDS011;32676;52.630;4.896;2022-12-18T14:00:42;21.00;;;8.60;;
46941;SDS011;32676;52.630;4.896;2022-12-18T14:03:15;16.40;;;7.85;;
46941;SDS011;32676;52.630;4.896;2022-12-18T14:05:44;15.85;;;8.25;;
46941;SDS011;32676;52.630;4.896;2022-12-18T14:08:12;17.20;;;7.45;;
46941;SDS011;32676;52.630;4.896;2022-12-18T14:10:41;17.35;;;7.40;;
46941;SDS011;32676;52.630;4.896;2022-12-18T14:13:10;16.48;;;8.15;;
46941;SDS011;32676;52.630;4.896;2022-12-18T14:15:41;15.75;;;8.30;;
46941;SDS011;32676;52.630;4.896;2022-12-18T14:18:14;14.43;;;6.78;;
46941;SDS011;32676;52.630;4.896;2022-12-18T14:20:47;19.70;;;7.45;;
46941;SDS011;32676;52.630;4.896;2022-12-18T14:23:26;16.05;;;6.60;;
46941;SDS011;32676;52.630;4.896;2022-12-18T14:25:55;18.70;;;7.97;;
46941;SDS011;32676;52.630;4.896;2022-12-18T14:28:21;14.50;;;7.68;;
46941;SDS011;32676;52.630;4.896;2022-12-18T14:30:48;18.58;;;8.43;;
46941;SDS011;32676;52.630;4.896;2022-12-18T14:33:16;16.65;;;7.40;;
46941;SDS011;32676;52.630;4.896;2022-12-18T14:35:52;16.77;;;8.23;;
46941;SDS011;32676;52.630;4.896;2022-12-18T14:38:22;17.80;;;6.60;;
46941;SDS011;32676;52.630;4.896;2022-12-18T14:40:53;20.13;;;8.20;;
46941;SDS011;32676;52.630;4.896;2022-12-18T14:43:20;18.63;;;8.93;;
46941;SDS011;32676;52.630;4.896;2022-12-18T14:45:47;18.90;;;7.82;;
46941;SDS011;32676;52.630;4.896;2022-12-18T14:48:15;16.92;;;7.80;;
46941;SDS011;32676;52.630;4.896;2022-12-18T14:50:43;18.83;;;8.38;;
46941;SDS011;32676;52.630;4.896;2022-12-18T14:53:21;13.65;;;8.40;;
46941;SDS011;32676;52.630;4.896;2022-12-18T14:55:49;23.38;;;9.60;;
46941;SDS011;32676;52.630;4.896;2022-12-18T14:58:17;16.15;;;8.48;;
46941;SDS011;32676;52.630;4.896;2022-12-18T15:00:44;19.15;;;8.40;;